РПИ Шымкент

РПИ Шимкент является структурным подразделением дивизиона VATRUS сети VATSIM.

РПИ осуществляет свою деятельность в границах Жамбыльской, Туркестанской и Кызылординской областей Республики Казахстан.

Схемы и аэронавигационную информацию можно получить на сайте   Казаэронавигация

Средства связи ОВД:

UAII_CTR - Шымкент Контроль - 132.700

RU-CEN_FSS - Азия Радар  - 132.850 (РПИ: UACN, UAAA, UAII, UATT, UTAA, UCFM, UTAT, UTDD, UTTR,  UCFO,  UTSD, UTAV,  UTAK)

Руководитель РПИ

Dmitriy Bannov

Инструкторы РПИ
Evgeny Vygornitsky (Supervisor)
Vitaliy Alekseyev (Instructor)
Входит в состав
ЗЦ Центральная Азия

Диспетчеры РПИ

Диспетчер Рейтинг Допуски *

Аэропорты РПИ

ICAO Город Название Погода
UAII Шымкент Шымкент UAII 020100Z 15003MPS CAVOK 23/03 Q1007 NOSIG RMK QFE718/0957